sensor_id;sensor_type;location;lat;lon;timestamp;P1;durP1;ratioP1;P2;durP2;ratioP2
51913;SDS011;37940;53.002;6.930;2023-02-28T00:01:20;13.77;;;5.43;;
51913;SDS011;37940;53.002;6.930;2023-02-28T00:03:47;18.63;;;5.63;;
51913;SDS011;37940;53.002;6.930;2023-02-28T00:06:12;13.73;;;5.03;;
51913;SDS011;37940;53.002;6.930;2023-02-28T00:08:38;14.68;;;6.40;;
51913;SDS011;37940;53.002;6.930;2023-02-28T00:11:05;13.82;;;5.65;;
51913;SDS011;37940;53.002;6.930;2023-02-28T00:13:36;14.65;;;6.20;;
51913;SDS011;37940;53.002;6.930;2023-02-28T00:16:05;11.65;;;5.55;;
51913;SDS011;37940;53.002;6.930;2023-02-28T00:18:33;11.95;;;5.75;;
51913;SDS011;37940;53.002;6.930;2023-02-28T00:20:59;14.70;;;6.18;;
51913;SDS011;37940;53.002;6.930;2023-02-28T00:23:25;12.93;;;5.55;;
51913;SDS011;37940;53.002;6.930;2023-02-28T00:25:51;9.80;;;5.57;;
51913;SDS011;37940;53.002;6.930;2023-02-28T00:28:17;8.55;;;5.18;;
51913;SDS011;37940;53.002;6.930;2023-02-28T00:30:43;14.00;;;6.28;;
51913;SDS011;37940;53.002;6.930;2023-02-28T00:33:09;12.65;;;5.90;;
51913;SDS011;37940;53.002;6.930;2023-02-28T00:35:35;13.55;;;5.88;;
51913;SDS011;37940;53.002;6.930;2023-02-28T00:38:01;12.55;;;6.03;;
51913;SDS011;37940;53.002;6.930;2023-02-28T00:40:27;13.90;;;6.60;;
51913;SDS011;37940;53.002;6.930;2023-02-28T00:42:53;14.57;;;5.88;;
51913;SDS011;37940;53.002;6.930;2023-02-28T00:45:19;13.05;;;6.15;;
51913;SDS011;37940;53.002;6.930;2023-02-28T00:47:45;10.63;;;5.43;;
51913;SDS011;37940;53.002;6.930;2023-02-28T00:50:12;12.60;;;5.45;;
51913;SDS011;37940;53.002;6.930;2023-02-28T00:52:37;12.48;;;5.47;;
51913;SDS011;37940;53.002;6.930;2023-02-28T00:55:03;14.85;;;6.10;;
51913;SDS011;37940;53.002;6.930;2023-02-28T00:57:30;12.55;;;6.20;;
51913;SDS011;37940;53.002;6.930;2023-02-28T00:59:55;16.17;;;5.85;;
51913;SDS011;37940;53.002;6.930;2023-02-28T01:02:22;14.45;;;5.65;;
51913;SDS011;37940;53.002;6.930;2023-02-28T01:04:48;14.55;;;6.57;;
51913;SDS011;37940;53.002;6.930;2023-02-28T01:07:13;11.32;;;5.30;;
51913;SDS011;37940;53.002;6.930;2023-02-28T01:09:40;15.52;;;6.40;;
51913;SDS011;37940;53.002;6.930;2023-02-28T01:12:06;14.82;;;6.43;;
51913;SDS011;37940;53.002;6.930;2023-02-28T01:14:33;14.63;;;5.47;;
51913;SDS011;37940;53.002;6.930;2023-02-28T01:16:59;9.88;;;4.90;;
51913;SDS011;37940;53.002;6.930;2023-02-28T01:19:25;9.38;;;4.82;;
51913;SDS011;37940;53.002;6.930;2023-02-28T01:21:51;10.68;;;4.63;;
51913;SDS011;37940;53.002;6.930;2023-02-28T01:24:17;12.00;;;4.70;;
51913;SDS011;37940;53.002;6.930;2023-02-28T01:26:43;9.55;;;4.90;;
51913;SDS011;37940;53.002;6.930;2023-02-28T01:29:09;11.10;;;4.65;;
51913;SDS011;37940;53.002;6.930;2023-02-28T01:31:35;12.98;;;4.97;;
51913;SDS011;37940;53.002;6.930;2023-02-28T01:34:01;10.40;;;4.93;;
51913;SDS011;37940;53.002;6.930;2023-02-28T01:36:28;9.50;;;4.50;;
51913;SDS011;37940;53.002;6.930;2023-02-28T01:38:54;9.18;;;4.68;;
51913;SDS011;37940;53.002;6.930;2023-02-28T01:41:24;13.00;;;5.10;;
51913;SDS011;37940;53.002;6.930;2023-02-28T01:43:53;10.13;;;4.80;;
51913;SDS011;37940;53.002;6.930;2023-02-28T01:46:22;11.90;;;5.53;;
51913;SDS011;37940;53.002;6.930;2023-02-28T01:48:53;12.88;;;5.57;;
51913;SDS011;37940;53.002;6.930;2023-02-28T01:51:50;14.10;;;4.90;;
51913;SDS011;37940;53.002;6.930;2023-02-28T01:54:30;11.57;;;5.15;;
51913;SDS011;37940;53.002;6.930;2023-02-28T01:57:00;12.35;;;5.47;;
51913;SDS011;37940;53.002;6.930;2023-02-28T01:59:32;13.90;;;6.18;;
51913;SDS011;37940;53.002;6.930;2023-02-28T02:02:10;11.43;;;6.07;;
51913;SDS011;37940;53.002;6.930;2023-02-28T02:04:37;11.70;;;5.93;;
51913;SDS011;37940;53.002;6.930;2023-02-28T02:07:08;14.63;;;6.57;;
51913;SDS011;37940;53.002;6.930;2023-02-28T02:09:35;15.27;;;7.22;;
51913;SDS011;37940;53.002;6.930;2023-02-28T02:12:02;12.60;;;6.63;;
51913;SDS011;37940;53.002;6.930;2023-02-28T02:15:13;21.85;;;7.88;;
51913;SDS011;37940;53.002;6.930;2023-02-28T02:17:54;12.60;;;6.68;;
51913;SDS011;37940;53.002;6.930;2023-02-28T02:37:28;10.25;;;5.70;;
51913;SDS011;37940;53.002;6.930;2023-02-28T02:40:08;12.35;;;6.05;;
51913;SDS011;37940;53.002;6.930;2023-02-28T02:42:44;12.13;;;5.88;;
51913;SDS011;37940;53.002;6.930;2023-02-28T02:45:28;10.60;;;5.63;;
51913;SDS011;37940;53.002;6.930;2023-02-28T02:48:01;14.15;;;6.07;;
51913;SDS011;37940;53.002;6.930;2023-02-28T02:50:31;11.15;;;5.65;;
51913;SDS011;37940;53.002;6.930;2023-02-28T02:53:02;13.90;;;6.28;;
51913;SDS011;37940;53.002;6.930;2023-02-28T02:55:31;10.73;;;5.97;;
51913;SDS011;37940;53.002;6.930;2023-02-28T02:58:04;12.10;;;6.05;;
51913;SDS011;37940;53.002;6.930;2023-02-28T03:00:37;12.65;;;5.80;;
51913;SDS011;37940;53.002;6.930;2023-02-28T03:03:08;11.45;;;6.10;;
51913;SDS011;37940;53.002;6.930;2023-02-28T03:05:39;11.90;;;6.47;;
51913;SDS011;37940;53.002;6.930;2023-02-28T03:08:09;13.20;;;6.63;;
51913;SDS011;37940;53.002;6.930;2023-02-28T03:24:42;14.85;;;7.45;;
51913;SDS011;37940;53.002;6.930;2023-02-28T03:30:19;14.93;;;7.20;;
51913;SDS011;37940;53.002;6.930;2023-02-28T03:32:59;12.88;;;7.40;;
51913;SDS011;37940;53.002;6.930;2023-02-28T03:35:41;13.02;;;7.28;;
51913;SDS011;37940;53.002;6.930;2023-02-28T03:38:33;16.67;;;7.32;;
51913;SDS011;37940;53.002;6.930;2023-02-28T03:41:05;17.10;;;8.05;;
51913;SDS011;37940;53.002;6.930;2023-02-28T03:43:39;17.90;;;8.80;;
51913;SDS011;37940;53.002;6.930;2023-02-28T03:46:10;15.30;;;8.50;;
51913;SDS011;37940;53.002;6.930;2023-02-28T03:48:43;15.25;;;7.97;;
51913;SDS011;37940;53.002;6.930;2023-02-28T03:51:15;15.55;;;8.45;;
51913;SDS011;37940;53.002;6.930;2023-02-28T03:53:45;13.85;;;7.82;;
51913;SDS011;37940;53.002;6.930;2023-02-28T03:56:34;16.63;;;8.50;;
51913;SDS011;37940;53.002;6.930;2023-02-28T03:59:05;16.35;;;8.13;;
51913;SDS011;37940;53.002;6.930;2023-02-28T04:01:45;16.83;;;8.93;;
51913;SDS011;37940;53.002;6.930;2023-02-28T04:04:13;12.68;;;7.75;;
51913;SDS011;37940;53.002;6.930;2023-02-28T04:06:40;15.23;;;7.43;;
51913;SDS011;37940;53.002;6.930;2023-02-28T04:09:07;13.88;;;7.50;;
51913;SDS011;37940;53.002;6.930;2023-02-28T04:11:36;16.25;;;8.02;;
51913;SDS011;37940;53.002;6.930;2023-02-28T04:14:07;15.32;;;8.15;;
51913;SDS011;37940;53.002;6.930;2023-02-28T04:16:34;20.55;;;8.77;;
51913;SDS011;37940;53.002;6.930;2023-02-28T04:19:02;15.88;;;8.30;;
51913;SDS011;37940;53.002;6.930;2023-02-28T04:21:43;14.10;;;8.32;;
51913;SDS011;37940;53.002;6.930;2023-02-28T04:24:12;13.35;;;8.02;;
51913;SDS011;37940;53.002;6.930;2023-02-28T04:26:40;16.35;;;7.95;;
51913;SDS011;37940;53.002;6.930;2023-02-28T04:29:12;14.48;;;8.25;;
51913;SDS011;37940;53.002;6.930;2023-02-28T04:31:38;15.40;;;7.82;;
51913;SDS011;37940;53.002;6.930;2023-02-28T04:34:04;15.43;;;8.52;;
51913;SDS011;37940;53.002;6.930;2023-02-28T04:36:30;23.17;;;9.70;;
51913;SDS011;37940;53.002;6.930;2023-02-28T04:38:57;14.88;;;9.00;;
51913;SDS011;37940;53.002;6.930;2023-02-28T04:41:23;16.30;;;8.68;;
51913;SDS011;37940;53.002;6.930;2023-02-28T04:43:50;15.52;;;8.52;;
51913;SDS011;37940;53.002;6.930;2023-02-28T04:46:17;14.30;;;7.97;;
51913;SDS011;37940;53.002;6.930;2023-02-28T04:48:44;16.83;;;8.38;;
51913;SDS011;37940;53.002;6.930;2023-02-28T04:51:11;12.93;;;7.97;;
51913;SDS011;37940;53.002;6.930;2023-02-28T04:53:39;15.52;;;8.70;;
51913;SDS011;37940;53.002;6.930;2023-02-28T04:56:06;18.00;;;8.30;;
51913;SDS011;37940;53.002;6.930;2023-02-28T04:58:33;19.27;;;8.65;;
51913;SDS011;37940;53.002;6.930;2023-02-28T05:03:45;16.30;;;8.98;;
51913;SDS011;37940;53.002;6.930;2023-02-28T05:06:12;18.60;;;8.80;;
51913;SDS011;37940;53.002;6.930;2023-02-28T05:08:39;15.60;;;8.70;;
51913;SDS011;37940;53.002;6.930;2023-02-28T05:11:25;16.83;;;8.23;;
51913;SDS011;37940;53.002;6.930;2023-02-28T05:14:04;16.15;;;8.75;;
51913;SDS011;37940;53.002;6.930;2023-02-28T05:16:32;17.55;;;8.77;;
51913;SDS011;37940;53.002;6.930;2023-02-28T05:18:58;15.93;;;9.07;;
51913;SDS011;37940;53.002;6.930;2023-02-28T05:21:31;15.77;;;9.27;;
51913;SDS011;37940;53.002;6.930;2023-02-28T05:24:05;16.50;;;9.40;;
51913;SDS011;37940;53.002;6.930;2023-02-28T05:26:35;17.60;;;9.32;;
51913;SDS011;37940;53.002;6.930;2023-02-28T05:29:02;18.92;;;9.80;;
51913;SDS011;37940;53.002;6.930;2023-02-28T05:31:28;17.30;;;9.27;;
51913;SDS011;37940;53.002;6.930;2023-02-28T05:33:54;19.42;;;9.90;;
51913;SDS011;37940;53.002;6.930;2023-02-28T05:36:20;24.00;;;10.80;;
51913;SDS011;37940;53.002;6.930;2023-02-28T05:38:46;22.40;;;10.82;;
51913;SDS011;37940;53.002;6.930;2023-02-28T05:41:13;21.15;;;9.95;;
51913;SDS011;37940;53.002;6.930;2023-02-28T05:43:39;17.05;;;9.38;;
51913;SDS011;37940;53.002;6.930;2023-02-28T05:46:05;13.52;;;8.95;;
51913;SDS011;37940;53.002;6.930;2023-02-28T05:48:33;17.25;;;9.60;;
51913;SDS011;37940;53.002;6.930;2023-02-28T05:51:00;16.70;;;10.45;;
51913;SDS011;37940;53.002;6.930;2023-02-28T05:53:26;19.60;;;10.50;;
51913;SDS011;37940;53.002;6.930;2023-02-28T05:55:52;19.50;;;10.40;;
51913;SDS011;37940;53.002;6.930;2023-02-28T05:58:18;18.02;;;9.65;;
51913;SDS011;37940;53.002;6.930;2023-02-28T06:00:44;21.88;;;11.02;;
51913;SDS011;37940;53.002;6.930;2023-02-28T06:03:10;20.00;;;11.02;;
51913;SDS011;37940;53.002;6.930;2023-02-28T06:05:38;20.40;;;10.77;;
51913;SDS011;37940;53.002;6.930;2023-02-28T06:08:04;22.38;;;11.95;;
51913;SDS011;37940;53.002;6.930;2023-02-28T06:10:32;19.77;;;10.80;;
51913;SDS011;37940;53.002;6.930;2023-02-28T06:13:02;27.05;;;11.38;;
51913;SDS011;37940;53.002;6.930;2023-02-28T06:15:29;22.08;;;10.88;;
51913;SDS011;37940;53.002;6.930;2023-02-28T06:17:55;22.58;;;10.23;;
51913;SDS011;37940;53.002;6.930;2023-02-28T06:20:22;21.35;;;10.70;;
51913;SDS011;37940;53.002;6.930;2023-02-28T06:22:49;17.23;;;10.15;;
51913;SDS011;37940;53.002;6.930;2023-02-28T06:25:19;17.35;;;10.57;;
51913;SDS011;37940;53.002;6.930;2023-02-28T06:27:45;21.00;;;11.52;;
51913;SDS011;37940;53.002;6.930;2023-02-28T06:30:11;23.83;;;11.07;;
51913;SDS011;37940;53.002;6.930;2023-02-28T06:32:37;19.17;;;10.20;;
51913;SDS011;37940;53.002;6.930;2023-02-28T06:35:04;16.25;;;10.05;;
51913;SDS011;37940;53.002;6.930;2023-02-28T06:37:30;21.30;;;11.35;;
51913;SDS011;37940;53.002;6.930;2023-02-28T06:39:57;20.23;;;10.98;;
51913;SDS011;37940;53.002;6.930;2023-02-28T06:42:23;16.70;;;10.30;;
51913;SDS011;37940;53.002;6.930;2023-02-28T06:44:57;17.52;;;10.23;;
51913;SDS011;37940;53.002;6.930;2023-02-28T06:47:23;23.58;;;12.20;;
51913;SDS011;37940;53.002;6.930;2023-02-28T06:49:50;19.33;;;10.80;;
51913;SDS011;37940;53.002;6.930;2023-02-28T06:52:16;24.38;;;13.13;;
51913;SDS011;37940;53.002;6.930;2023-02-28T06:54:41;24.10;;;12.82;;
51913;SDS011;37940;53.002;6.930;2023-02-28T06:57:07;23.77;;;12.68;;
51913;SDS011;37940;53.002;6.930;2023-02-28T06:59:33;31.17;;;12.93;;
51913;SDS011;37940;53.002;6.930;2023-02-28T07:02:00;35.83;;;13.43;;
51913;SDS011;37940;53.002;6.930;2023-02-28T07:04:27;23.23;;;12.05;;
51913;SDS011;37940;53.002;6.930;2023-02-28T07:06:54;18.10;;;11.60;;
51913;SDS011;37940;53.002;6.930;2023-02-28T07:09:22;24.35;;;12.40;;
51913;SDS011;37940;53.002;6.930;2023-02-28T07:11:48;22.67;;;12.57;;
51913;SDS011;37940;53.002;6.930;2023-02-28T07:14:14;20.13;;;12.23;;
51913;SDS011;37940;53.002;6.930;2023-02-28T07:16:40;24.33;;;12.50;;
51913;SDS011;37940;53.002;6.930;2023-02-28T07:19:05;28.17;;;12.82;;
51913;SDS011;37940;53.002;6.930;2023-02-28T07:21:31;25.60;;;12.80;;
51913;SDS011;37940;53.002;6.930;2023-02-28T07:23:57;17.92;;;10.88;;
51913;SDS011;37940;53.002;6.930;2023-02-28T07:26:23;22.90;;;11.70;;
51913;SDS011;37940;53.002;6.930;2023-02-28T07:28:49;22.50;;;11.15;;
51913;SDS011;37940;53.002;6.930;2023-02-28T07:31:15;22.98;;;11.90;;
51913;SDS011;37940;53.002;6.930;2023-02-28T07:33:42;22.30;;;12.18;;
51913;SDS011;37940;53.002;6.930;2023-02-28T07:36:09;23.98;;;13.20;;
51913;SDS011;37940;53.002;6.930;2023-02-28T07:38:43;21.00;;;12.10;;
51913;SDS011;37940;53.002;6.930;2023-02-28T07:41:13;21.73;;;12.40;;
51913;SDS011;37940;53.002;6.930;2023-02-28T07:43:43;25.95;;;12.38;;
51913;SDS011;37940;53.002;6.930;2023-02-28T07:46:10;19.85;;;12.07;;
51913;SDS011;37940;53.002;6.930;2023-02-28T07:48:40;22.90;;;11.93;;
51913;SDS011;37940;53.002;6.930;2023-02-28T07:51:06;19.50;;;11.32;;
51913;SDS011;37940;53.002;6.930;2023-02-28T07:53:32;19.27;;;11.45;;
51913;SDS011;37940;53.002;6.930;2023-02-28T07:55:58;18.30;;;11.25;;
51913;SDS011;37940;53.002;6.930;2023-02-28T07:58:26;21.17;;;11.60;;
51913;SDS011;37940;53.002;6.930;2023-02-28T08:00:53;20.92;;;12.40;;
51913;SDS011;37940;53.002;6.930;2023-02-28T08:03:19;20.63;;;11.82;;
51913;SDS011;37940;53.002;6.930;2023-02-28T08:05:46;23.42;;;12.50;;
51913;SDS011;37940;53.002;6.930;2023-02-28T08:08:13;18.52;;;11.07;;
51913;SDS011;37940;53.002;6.930;2023-02-28T08:10:40;14.77;;;10.13;;
51913;SDS011;37940;53.002;6.930;2023-02-28T08:13:06;21.35;;;12.13;;
51913;SDS011;37940;53.002;6.930;2023-02-28T08:15:32;17.27;;;10.93;;
51913;SDS011;37940;53.002;6.930;2023-02-28T08:17:58;29.00;;;16.48;;
51913;SDS011;37940;53.002;6.930;2023-02-28T08:20:24;49.42;;;27.85;;
51913;SDS011;37940;53.002;6.930;2023-02-28T08:22:50;30.63;;;17.67;;
51913;SDS011;37940;53.002;6.930;2023-02-28T08:25:16;21.70;;;12.43;;
51913;SDS011;37940;53.002;6.930;2023-02-28T08:27:43;19.92;;;12.57;;
51913;SDS011;37940;53.002;6.930;2023-02-28T08:30:12;22.63;;;12.40;;
51913;SDS011;37940;53.002;6.930;2023-02-28T08:32:39;20.08;;;11.80;;
51913;SDS011;37940;53.002;6.930;2023-02-28T08:35:06;22.85;;;12.05;;
51913;SDS011;37940;53.002;6.930;2023-02-28T08:37:32;23.77;;;12.70;;
51913;SDS011;37940;53.002;6.930;2023-02-28T08:39:57;23.95;;;12.18;;
51913;SDS011;37940;53.002;6.930;2023-02-28T08:42:23;21.67;;;12.38;;
51913;SDS011;37940;53.002;6.930;2023-02-28T08:44:49;19.67;;;11.20;;
51913;SDS011;37940;53.002;6.930;2023-02-28T08:47:15;18.77;;;11.73;;
51913;SDS011;37940;53.002;6.930;2023-02-28T08:49:41;17.27;;;11.98;;
51913;SDS011;37940;53.002;6.930;2023-02-28T08:52:07;17.17;;;10.95;;
51913;SDS011;37940;53.002;6.930;2023-02-28T08:54:33;18.17;;;11.45;;
51913;SDS011;37940;53.002;6.930;2023-02-28T08:56:59;14.70;;;10.75;;
51913;SDS011;37940;53.002;6.930;2023-02-28T08:59:25;19.58;;;12.02;;
51913;SDS011;37940;53.002;6.930;2023-02-28T09:01:51;20.05;;;12.55;;
51913;SDS011;37940;53.002;6.930;2023-02-28T09:04:17;17.95;;;12.30;;
51913;SDS011;37940;53.002;6.930;2023-02-28T09:06:42;20.38;;;12.27;;
51913;SDS011;37940;53.002;6.930;2023-02-28T09:09:09;20.88;;;12.43;;
51913;SDS011;37940;53.002;6.930;2023-02-28T09:11:35;21.23;;;12.25;;
51913;SDS011;37940;53.002;6.930;2023-02-28T09:14:01;22.35;;;13.77;;
51913;SDS011;37940;53.002;6.930;2023-02-28T09:16:28;18.27;;;13.18;;
51913;SDS011;37940;53.002;6.930;2023-02-28T09:18:56;19.92;;;12.00;;
51913;SDS011;37940;53.002;6.930;2023-02-28T09:21:22;23.17;;;12.43;;
51913;SDS011;37940;53.002;6.930;2023-02-28T09:23:49;21.08;;;12.20;;
51913;SDS011;37940;53.002;6.930;2023-02-28T09:26:17;18.60;;;12.30;;
51913;SDS011;37940;53.002;6.930;2023-02-28T09:28:52;17.55;;;11.80;;
51913;SDS011;37940;53.002;6.930;2023-02-28T09:31:23;19.25;;;11.52;;
51913;SDS011;37940;53.002;6.930;2023-02-28T09:33:54;19.25;;;11.82;;
51913;SDS011;37940;53.002;6.930;2023-02-28T09:36:22;19.17;;;11.80;;
51913;SDS011;37940;53.002;6.930;2023-02-28T09:38:49;17.73;;;11.18;;
51913;SDS011;37940;53.002;6.930;2023-02-28T09:43:52;18.15;;;10.68;;
51913;SDS011;37940;53.002;6.930;2023-02-28T09:46:44;18.00;;;11.57;;
51913;SDS011;37940;53.002;6.930;2023-02-28T09:49:17;15.85;;;9.80;;
51913;SDS011;37940;53.002;6.930;2023-02-28T09:51:52;15.07;;;9.45;;
51913;SDS011;37940;53.002;6.930;2023-02-28T09:54:30;14.95;;;9.27;;
51913;SDS011;37940;53.002;6.930;2023-02-28T10:02:21;16.25;;;7.65;;
51913;SDS011;37940;53.002;6.930;2023-02-28T10:05:05;9.63;;;6.15;;
51913;SDS011;37940;53.002;6.930;2023-02-28T10:10:26;8.18;;;5.28;;
51913;SDS011;37940;53.002;6.930;2023-02-28T10:12:53;8.35;;;4.57;;
51913;SDS011;37940;53.002;6.930;2023-02-28T10:15:21;6.95;;;4.10;;
51913;SDS011;37940;53.002;6.930;2023-02-28T10:17:53;9.05;;;5.15;;
51913;SDS011;37940;53.002;6.930;2023-02-28T10:20:23;11.18;;;5.45;;
51913;SDS011;37940;53.002;6.930;2023-02-28T10:23:02;9.85;;;5.85;;
51913;SDS011;37940;53.002;6.930;2023-02-28T10:25:37;8.27;;;5.22;;
51913;SDS011;37940;53.002;6.930;2023-02-28T10:28:16;10.55;;;5.07;;
51913;SDS011;37940;53.002;6.930;2023-02-28T10:30:46;9.57;;;5.00;;
51913;SDS011;37940;53.002;6.930;2023-02-28T10:35:52;10.02;;;6.30;;
51913;SDS011;37940;53.002;6.930;2023-02-28T10:38:20;10.77;;;5.95;;
51913;SDS011;37940;53.002;6.930;2023-02-28T10:44:13;11.00;;;5.47;;
51913;SDS011;37940;53.002;6.930;2023-02-28T10:46:43;11.80;;;4.88;;
51913;SDS011;37940;53.002;6.930;2023-02-28T10:49:27;8.73;;;4.90;;
51913;SDS011;37940;53.002;6.930;2023-02-28T10:51:58;8.52;;;5.40;;
51913;SDS011;37940;53.002;6.930;2023-02-28T10:54:32;8.77;;;5.22;;
51913;SDS011;37940;53.002;6.930;2023-02-28T10:57:35;9.52;;;5.13;;
51913;SDS011;37940;53.002;6.930;2023-02-28T11:02:50;8.00;;;5.18;;
51913;SDS011;37940;53.002;6.930;2023-02-28T11:05:30;10.05;;;5.50;;
51913;SDS011;37940;53.002;6.930;2023-02-28T11:08:04;9.15;;;5.28;;
51913;SDS011;37940;53.002;6.930;2023-02-28T11:10:39;6.93;;;4.55;;
51913;SDS011;37940;53.002;6.930;2023-02-28T11:13:15;7.85;;;4.97;;
51913;SDS011;37940;53.002;6.930;2023-02-28T11:15:49;8.95;;;5.30;;
51913;SDS011;37940;53.002;6.930;2023-02-28T11:18:26;8.90;;;4.82;;
51913;SDS011;37940;53.002;6.930;2023-02-28T11:21:01;11.65;;;5.55;;
51913;SDS011;37940;53.002;6.930;2023-02-28T11:23:29;8.75;;;5.40;;
51913;SDS011;37940;53.002;6.930;2023-02-28T11:25:58;8.80;;;5.10;;
51913;SDS011;37940;53.002;6.930;2023-02-28T11:28:31;9.73;;;4.72;;
51913;SDS011;37940;53.002;6.930;2023-02-28T11:33:47;7.78;;;5.00;;
51913;SDS011;37940;53.002;6.930;2023-02-28T11:38:42;9.90;;;5.30;;
51913;SDS011;37940;53.002;6.930;2023-02-28T11:52:02;8.05;;;5.45;;
51913;SDS011;37940;53.002;6.930;2023-02-28T11:59:56;9.27;;;5.20;;
51913;SDS011;37940;53.002;6.930;2023-02-28T12:24:50;7.53;;;4.65;;
51913;SDS011;37940;53.002;6.930;2023-02-28T12:27:20;9.98;;;4.93;;
51913;SDS011;37940;53.002;6.930;2023-02-28T12:29:57;9.65;;;5.15;;
51913;SDS011;37940;53.002;6.930;2023-02-28T12:32:34;8.30;;;4.25;;
51913;SDS011;37940;53.002;6.930;2023-02-28T12:37:56;9.15;;;4.85;;
51913;SDS011;37940;53.002;6.930;2023-02-28T12:40:46;8.13;;;4.78;;
51913;SDS011;37940;53.002;6.930;2023-02-28T12:43:25;7.15;;;4.80;;
51913;SDS011;37940;53.002;6.930;2023-02-28T12:46:02;8.95;;;4.80;;
51913;SDS011;37940;53.002;6.930;2023-02-28T12:51:21;8.73;;;4.85;;
51913;SDS011;37940;53.002;6.930;2023-02-28T12:53:53;7.70;;;4.47;;
51913;SDS011;37940;53.002;6.930;2023-02-28T12:59:39;6.85;;;4.78;;
51913;SDS011;37940;53.002;6.930;2023-02-28T13:10:06;8.40;;;4.65;;
51913;SDS011;37940;53.002;6.930;2023-02-28T13:12:33;8.52;;;4.57;;
51913;SDS011;37940;53.002;6.930;2023-02-28T13:15:33;7.82;;;4.93;;
51913;SDS011;37940;53.002;6.930;2023-02-28T13:17:55;7.53;;;5.20;;
51913;SDS011;37940;53.002;6.930;2023-02-28T13:20:24;8.13;;;5.30;;
51913;SDS011;37940;53.002;6.930;2023-02-28T13:22:52;10.35;;;5.82;;
51913;SDS011;37940;53.002;6.930;2023-02-28T13:27:48;6.65;;;4.28;;
51913;SDS011;37940;53.002;6.930;2023-02-28T13:39:02;5.85;;;3.10;;
51913;SDS011;37940;53.002;6.930;2023-02-28T13:41:47;7.95;;;3.53;;
51913;SDS011;37940;53.002;6.930;2023-02-28T13:44:14;4.85;;;2.92;;
51913;SDS011;37940;53.002;6.930;2023-02-28T14:08:55;5.43;;;3.70;;
51913;SDS011;37940;53.002;6.930;2023-02-28T14:11:29;7.40;;;4.07;;
51913;SDS011;37940;53.002;6.930;2023-02-28T14:13:59;6.82;;;3.78;;
51913;SDS011;37940;53.002;6.930;2023-02-28T14:16:48;6.22;;;4.05;;
51913;SDS011;37940;53.002;6.930;2023-02-28T14:19:33;6.10;;;4.05;;
51913;SDS011;37940;53.002;6.930;2023-02-28T14:33:34;8.57;;;4.00;;
51913;SDS011;37940;53.002;6.930;2023-02-28T14:38:51;6.00;;;3.97;;
51913;SDS011;37940;53.002;6.930;2023-02-28T14:41:21;8.55;;;4.05;;
51913;SDS011;37940;53.002;6.930;2023-02-28T14:43:50;6.10;;;4.03;;
51913;SDS011;37940;53.002;6.930;2023-02-28T14:46:19;5.78;;;4.05;;
51913;SDS011;37940;53.002;6.930;2023-02-28T14:48:46;5.93;;;3.65;;
51913;SDS011;37940;53.002;6.930;2023-02-28T14:51:18;6.88;;;4.30;;
51913;SDS011;37940;53.002;6.930;2023-02-28T14:53:47;6.85;;;4.10;;
51913;SDS011;37940;53.002;6.930;2023-02-28T14:56:19;8.07;;;3.83;;
51913;SDS011;37940;53.002;6.930;2023-02-28T14:58:54;6.47;;;3.88;;
51913;SDS011;37940;53.002;6.930;2023-02-28T15:01:21;5.97;;;3.70;;
51913;SDS011;37940;53.002;6.930;2023-02-28T15:03:48;6.50;;;3.88;;
51913;SDS011;37940;53.002;6.930;2023-02-28T15:06:29;6.40;;;3.83;;
51913;SDS011;37940;53.002;6.930;2023-02-28T15:11:42;7.32;;;4.60;;
51913;SDS011;37940;53.002;6.930;2023-02-28T15:14:17;7.25;;;4.15;;
51913;SDS011;37940;53.002;6.930;2023-02-28T15:16:46;8.02;;;4.38;;
51913;SDS011;37940;53.002;6.930;2023-02-28T15:21:48;7.72;;;4.10;;
51913;SDS011;37940;53.002;6.930;2023-02-28T15:24:37;6.05;;;3.63;;
51913;SDS011;37940;53.002;6.930;2023-02-28T15:27:09;6.25;;;3.55;;
51913;SDS011;37940;53.002;6.930;2023-02-28T15:29:47;6.15;;;3.70;;
51913;SDS011;37940;53.002;6.930;2023-02-28T15:32:33;7.80;;;3.38;;
51913;SDS011;37940;53.002;6.930;2023-02-28T15:37:57;6.53;;;3.30;;
51913;SDS011;37940;53.002;6.930;2023-02-28T15:40:43;5.88;;;3.58;;
51913;SDS011;37940;53.002;6.930;2023-02-28T15:45:52;7.28;;;3.97;;
51913;SDS011;37940;53.002;6.930;2023-02-28T15:48:22;6.75;;;4.05;;
51913;SDS011;37940;53.002;6.930;2023-02-28T15:50:58;10.00;;;4.38;;
51913;SDS011;37940;53.002;6.930;2023-02-28T15:53:40;6.28;;;4.15;;
51913;SDS011;37940;53.002;6.930;2023-02-28T15:59:03;6.55;;;3.70;;
51913;SDS011;37940;53.002;6.930;2023-02-28T16:04:03;6.07;;;4.00;;
51913;SDS011;37940;53.002;6.930;2023-02-28T16:06:43;7.55;;;4.00;;
51913;SDS011;37940;53.002;6.930;2023-02-28T16:09:18;5.97;;;3.53;;
51913;SDS011;37940;53.002;6.930;2023-02-28T16:11:45;9.02;;;5.00;;
51913;SDS011;37940;53.002;6.930;2023-02-28T16:14:19;8.57;;;5.55;;
51913;SDS011;37940;53.002;6.930;2023-02-28T16:16:49;8.98;;;4.78;;
51913;SDS011;37940;53.002;6.930;2023-02-28T16:19:17;7.38;;;5.28;;
51913;SDS011;37940;53.002;6.930;2023-02-28T16:21:44;6.63;;;3.97;;
51913;SDS011;37940;53.002;6.930;2023-02-28T16:24:10;9.70;;;6.60;;
51913;SDS011;37940;53.002;6.930;2023-02-28T16:26:36;6.43;;;4.60;;
51913;SDS011;37940;53.002;6.930;2023-02-28T16:29:04;9.07;;;4.35;;
51913;SDS011;37940;53.002;6.930;2023-02-28T16:31:33;6.97;;;4.30;;
51913;SDS011;37940;53.002;6.930;2023-02-28T16:34:03;9.50;;;4.53;;
51913;SDS011;37940;53.002;6.930;2023-02-28T16:36:29;8.32;;;5.40;;
51913;SDS011;37940;53.002;6.930;2023-02-28T16:38:55;8.07;;;3.90;;
51913;SDS011;37940;53.002;6.930;2023-02-28T16:41:22;10.13;;;6.20;;
51913;SDS011;37940;53.002;6.930;2023-02-28T16:43:51;8.93;;;4.00;;
51913;SDS011;37940;53.002;6.930;2023-02-28T16:46:19;6.35;;;3.67;;
51913;SDS011;37940;53.002;6.930;2023-02-28T16:48:49;6.85;;;3.95;;
51913;SDS011;37940;53.002;6.930;2023-02-28T16:51:16;7.07;;;3.40;;
51913;SDS011;37940;53.002;6.930;2023-02-28T16:53:43;8.30;;;3.58;;
51913;SDS011;37940;53.002;6.930;2023-02-28T16:56:13;7.07;;;3.80;;
51913;SDS011;37940;53.002;6.930;2023-02-28T16:58:42;5.53;;;3.17;;
51913;SDS011;37940;53.002;6.930;2023-02-28T17:01:07;7.80;;;3.55;;
51913;SDS011;37940;53.002;6.930;2023-02-28T17:03:33;5.43;;;3.45;;
51913;SDS011;37940;53.002;6.930;2023-02-28T17:06:01;6.10;;;3.38;;
51913;SDS011;37940;53.002;6.930;2023-02-28T17:08:28;5.72;;;3.55;;
51913;SDS011;37940;53.002;6.930;2023-02-28T17:10:55;7.10;;;3.58;;
51913;SDS011;37940;53.002;6.930;2023-02-28T17:13:20;7.25;;;4.10;;
51913;SDS011;37940;53.002;6.930;2023-02-28T17:15:46;5.30;;;3.45;;
51913;SDS011;37940;53.002;6.930;2023-02-28T17:18:13;6.28;;;3.95;;
51913;SDS011;37940;53.002;6.930;2023-02-28T17:20:41;6.57;;;3.67;;
51913;SDS011;37940;53.002;6.930;2023-02-28T17:23:09;7.80;;;4.25;;
51913;SDS011;37940;53.002;6.930;2023-02-28T17:25:35;7.00;;;4.20;;
51913;SDS011;37940;53.002;6.930;2023-02-28T17:28:01;7.05;;;4.28;;
51913;SDS011;37940;53.002;6.930;2023-02-28T17:30:27;7.10;;;3.88;;
51913;SDS011;37940;53.002;6.930;2023-02-28T17:32:53;6.32;;;4.28;;
51913;SDS011;37940;53.002;6.930;2023-02-28T17:35:20;11.95;;;5.60;;
51913;SDS011;37940;53.002;6.930;2023-02-28T17:37:47;7.28;;;4.95;;
51913;SDS011;37940;53.002;6.930;2023-02-28T17:40:16;7.07;;;5.05;;
51913;SDS011;37940;53.002;6.930;2023-02-28T17:42:44;8.65;;;5.20;;
51913;SDS011;37940;53.002;6.930;2023-02-28T17:45:11;9.25;;;5.65;;
51913;SDS011;37940;53.002;6.930;2023-02-28T17:47:38;7.93;;;5.13;;
51913;SDS011;37940;53.002;6.930;2023-02-28T17:50:04;7.65;;;4.80;;
51913;SDS011;37940;53.002;6.930;2023-02-28T17:52:30;9.63;;;5.20;;